sensor_id;sensor_type;location;lat;lon;timestamp;temperature;humidity
26479;DHT22;14163;-26.142;27.992;2023-12-20T00:01:15;23.90;99.90
26479;DHT22;14163;-26.142;27.992;2023-12-20T00:03:45;23.90;99.90
26479;DHT22;14163;-26.142;27.992;2023-12-20T00:06:14;23.90;99.90
26479;DHT22;14163;-26.142;27.992;2023-12-20T00:08:43;24.00;99.90
26479;DHT22;14163;-26.142;27.992;2023-12-20T00:11:14;23.80;99.90
26479;DHT22;14163;-26.142;27.992;2023-12-20T00:13:43;23.80;99.90
26479;DHT22;14163;-26.142;27.992;2023-12-20T00:16:12;23.60;99.90
26479;DHT22;14163;-26.142;27.992;2023-12-20T00:18:41;23.70;99.90
26479;DHT22;14163;-26.142;27.992;2023-12-20T00:21:10;23.90;99.90
26479;DHT22;14163;-26.142;27.992;2023-12-20T00:23:40;24.20;99.90
26479;DHT22;14163;-26.142;27.992;2023-12-20T00:26:09;24.20;99.90
26479;DHT22;14163;-26.142;27.992;2023-12-20T00:28:40;24.10;99.90
26479;DHT22;14163;-26.142;27.992;2023-12-20T00:31:09;24.10;99.90
26479;DHT22;14163;-26.142;27.992;2023-12-20T00:33:38;24.30;99.90
26479;DHT22;14163;-26.142;27.992;2023-12-20T00:36:10;24.50;99.90
26479;DHT22;14163;-26.142;27.992;2023-12-20T00:38:39;24.70;99.90
26479;DHT22;14163;-26.142;27.992;2023-12-20T00:41:08;24.80;99.90
26479;DHT22;14163;-26.142;27.992;2023-12-20T00:43:39;24.80;99.90
26479;DHT22;14163;-26.142;27.992;2023-12-20T00:46:08;25.00;99.90
26479;DHT22;14163;-26.142;27.992;2023-12-20T00:48:37;25.10;99.90
26479;DHT22;14163;-26.142;27.992;2023-12-20T00:51:09;25.20;99.90
26479;DHT22;14163;-26.142;27.992;2023-12-20T00:53:38;25.30;99.90
26479;DHT22;14163;-26.142;27.992;2023-12-20T00:56:07;25.20;99.90
26479;DHT22;14163;-26.142;27.992;2023-12-20T00:58:38;24.80;99.90
26479;DHT22;14163;-26.142;27.992;2023-12-20T01:01:07;24.70;99.90
26479;DHT22;14163;-26.142;27.992;2023-12-20T01:03:36;24.80;99.90
26479;DHT22;14163;-26.142;27.992;2023-12-20T01:06:05;24.90;99.90
26479;DHT22;14163;-26.142;27.992;2023-12-20T01:08:35;24.80;99.90
26479;DHT22;14163;-26.142;27.992;2023-12-20T01:11:05;24.70;99.90
26479;DHT22;14163;-26.142;27.992;2023-12-20T01:13:34;24.80;99.90
26479;DHT22;14163;-26.142;27.992;2023-12-20T01:16:06;24.70;99.90
26479;DHT22;14163;-26.142;27.992;2023-12-20T01:18:35;24.40;99.90
26479;DHT22;14163;-26.142;27.992;2023-12-20T01:21:05;24.30;99.90
26479;DHT22;14163;-26.142;27.992;2023-12-20T01:23:34;24.50;99.90
26479;DHT22;14163;-26.142;27.992;2023-12-20T01:26:03;24.40;99.90
26479;DHT22;14163;-26.142;27.992;2023-12-20T01:28:33;24.10;99.90
26479;DHT22;14163;-26.142;27.992;2023-12-20T01:31:04;23.90;99.90
26479;DHT22;14163;-26.142;27.992;2023-12-20T01:33:33;23.90;99.90
26479;DHT22;14163;-26.142;27.992;2023-12-20T01:36:02;23.70;99.90
26479;DHT22;14163;-26.142;27.992;2023-12-20T01:38:31;23.50;99.90
26479;DHT22;14163;-26.142;27.992;2023-12-20T01:41:00;23.30;99.90
26479;DHT22;14163;-26.142;27.992;2023-12-20T01:43:30;23.40;99.90
26479;DHT22;14163;-26.142;27.992;2023-12-20T01:45:59;23.30;99.90
26479;DHT22;14163;-26.142;27.992;2023-12-20T01:48:31;23.30;99.90
26479;DHT22;14163;-26.142;27.992;2023-12-20T01:51:01;23.20;99.90
26479;DHT22;14163;-26.142;27.992;2023-12-20T01:53:30;23.20;99.90
26479;DHT22;14163;-26.142;27.992;2023-12-20T01:56:01;23.10;99.90
26479;DHT22;14163;-26.142;27.992;2023-12-20T01:58:30;23.10;99.90
26479;DHT22;14163;-26.142;27.992;2023-12-20T02:01:00;23.00;99.90
26479;DHT22;14163;-26.142;27.992;2023-12-20T02:03:30;23.00;99.90
26479;DHT22;14163;-26.142;27.992;2023-12-20T02:06:00;23.00;99.90
26479;DHT22;14163;-26.142;27.992;2023-12-20T02:08:29;23.10;99.90
26479;DHT22;14163;-26.142;27.992;2023-12-20T02:10:58;23.20;99.90
26479;DHT22;14163;-26.142;27.992;2023-12-20T02:13:27;23.30;99.90
26479;DHT22;14163;-26.142;27.992;2023-12-20T02:15:57;23.30;99.90
26479;DHT22;14163;-26.142;27.992;2023-12-20T02:18:26;23.20;99.90
26479;DHT22;14163;-26.142;27.992;2023-12-20T02:20:57;23.20;99.90
26479;DHT22;14163;-26.142;27.992;2023-12-20T02:23:28;23.20;99.90
26479;DHT22;14163;-26.142;27.992;2023-12-20T02:25:57;23.00;99.90
26479;DHT22;14163;-26.142;27.992;2023-12-20T02:28:26;23.00;99.90
26479;DHT22;14163;-26.142;27.992;2023-12-20T02:30:55;23.00;99.90
26479;DHT22;14163;-26.142;27.992;2023-12-20T02:33:24;23.20;99.90
26479;DHT22;14163;-26.142;27.992;2023-12-20T02:35:54;23.30;99.90
26479;DHT22;14163;-26.142;27.992;2023-12-20T02:38:23;23.30;99.90
26479;DHT22;14163;-26.142;27.992;2023-12-20T02:40:53;23.20;99.90
26479;DHT22;14163;-26.142;27.992;2023-12-20T02:43:23;23.10;99.90
26479;DHT22;14163;-26.142;27.992;2023-12-20T02:45:52;23.10;99.90
26479;DHT22;14163;-26.142;27.992;2023-12-20T02:48:21;23.10;99.90
26479;DHT22;14163;-26.142;27.992;2023-12-20T02:50:50;23.00;99.90
26479;DHT22;14163;-26.142;27.992;2023-12-20T02:53:19;22.80;99.90
26479;DHT22;14163;-26.142;27.992;2023-12-20T02:55:48;22.70;99.90
26479;DHT22;14163;-26.142;27.992;2023-12-20T02:58:20;22.60;99.90
26479;DHT22;14163;-26.142;27.992;2023-12-20T03:00:49;22.50;99.90
26479;DHT22;14163;-26.142;27.992;2023-12-20T03:03:18;22.40;99.90
26479;DHT22;14163;-26.142;27.992;2023-12-20T03:05:47;22.40;99.90
26479;DHT22;14163;-26.142;27.992;2023-12-20T03:08:16;22.40;99.90
26479;DHT22;14163;-26.142;27.992;2023-12-20T03:10:45;22.60;99.90
26479;DHT22;14163;-26.142;27.992;2023-12-20T03:13:14;22.70;99.90
26479;DHT22;14163;-26.142;27.992;2023-12-20T03:15:45;22.70;99.90
26479;DHT22;14163;-26.142;27.992;2023-12-20T03:18:14;22.50;99.90
26479;DHT22;14163;-26.142;27.992;2023-12-20T03:20:44;22.50;99.90
26479;DHT22;14163;-26.142;27.992;2023-12-20T03:23:14;22.30;99.90
26479;DHT22;14163;-26.142;27.992;2023-12-20T03:25:43;22.30;99.90
26479;DHT22;14163;-26.142;27.992;2023-12-20T03:28:15;22.30;99.90
26479;DHT22;14163;-26.142;27.992;2023-12-20T03:30:46;22.20;99.90
26479;DHT22;14163;-26.142;27.992;2023-12-20T03:33:15;22.10;99.90
26479;DHT22;14163;-26.142;27.992;2023-12-20T03:35:44;22.10;99.90
26479;DHT22;14163;-26.142;27.992;2023-12-20T03:38:13;22.00;99.90
26479;DHT22;14163;-26.142;27.992;2023-12-20T03:40:42;21.90;99.90
26479;DHT22;14163;-26.142;27.992;2023-12-20T03:43:11;22.00;99.90
26479;DHT22;14163;-26.142;27.992;2023-12-20T03:45:41;22.00;99.90
26479;DHT22;14163;-26.142;27.992;2023-12-20T03:48:12;21.90;99.90
26479;DHT22;14163;-26.142;27.992;2023-12-20T03:50:41;22.10;99.90
26479;DHT22;14163;-26.142;27.992;2023-12-20T03:53:10;22.20;99.90
26479;DHT22;14163;-26.142;27.992;2023-12-20T03:55:39;22.20;99.90
26479;DHT22;14163;-26.142;27.992;2023-12-20T03:58:08;22.10;99.90
26479;DHT22;14163;-26.142;27.992;2023-12-20T04:00:38;22.10;99.90
26479;DHT22;14163;-26.142;27.992;2023-12-20T04:03:08;22.10;99.90
26479;DHT22;14163;-26.142;27.992;2023-12-20T04:05:41;22.10;99.90
26479;DHT22;14163;-26.142;27.992;2023-12-20T04:08:10;22.20;99.90
26479;DHT22;14163;-26.142;27.992;2023-12-20T04:10:40;22.30;99.90
26479;DHT22;14163;-26.142;27.992;2023-12-20T04:13:09;22.40;99.90
26479;DHT22;14163;-26.142;27.992;2023-12-20T04:15:38;22.50;99.90
26479;DHT22;14163;-26.142;27.992;2023-12-20T04:18:07;22.70;99.90
26479;DHT22;14163;-26.142;27.992;2023-12-20T04:20:36;22.80;99.90
26479;DHT22;14163;-26.142;27.992;2023-12-20T04:23:07;22.80;99.90
26479;DHT22;14163;-26.142;27.992;2023-12-20T04:25:36;22.90;99.90
26479;DHT22;14163;-26.142;27.992;2023-12-20T04:28:06;23.10;99.90
26479;DHT22;14163;-26.142;27.992;2023-12-20T04:30:35;23.20;99.90
26479;DHT22;14163;-26.142;27.992;2023-12-20T04:33:04;23.20;99.90
26479;DHT22;14163;-26.142;27.992;2023-12-20T04:35:33;23.10;99.90
26479;DHT22;14163;-26.142;27.992;2023-12-20T04:38:03;22.80;99.90
26479;DHT22;14163;-26.142;27.992;2023-12-20T04:40:33;22.50;99.90
26479;DHT22;14163;-26.142;27.992;2023-12-20T04:43:03;22.40;99.90
26479;DHT22;14163;-26.142;27.992;2023-12-20T04:45:33;22.40;99.90
26479;DHT22;14163;-26.142;27.992;2023-12-20T04:48:03;22.40;99.90
26479;DHT22;14163;-26.142;27.992;2023-12-20T04:50:33;22.50;99.90
26479;DHT22;14163;-26.142;27.992;2023-12-20T04:53:02;22.40;99.90
26479;DHT22;14163;-26.142;27.992;2023-12-20T04:55:33;22.30;99.90
26479;DHT22;14163;-26.142;27.992;2023-12-20T04:58:02;22.30;99.90
26479;DHT22;14163;-26.142;27.992;2023-12-20T05:00:31;22.50;99.90
26479;DHT22;14163;-26.142;27.992;2023-12-20T05:03:00;22.70;99.90
26479;DHT22;14163;-26.142;27.992;2023-12-20T05:05:29;22.90;99.90
26479;DHT22;14163;-26.142;27.992;2023-12-20T05:07:58;23.00;99.90
26479;DHT22;14163;-26.142;27.992;2023-12-20T05:10:28;23.00;99.90
26479;DHT22;14163;-26.142;27.992;2023-12-20T05:12:58;22.80;99.90
26479;DHT22;14163;-26.142;27.992;2023-12-20T05:15:27;22.80;99.90
26479;DHT22;14163;-26.142;27.992;2023-12-20T05:17:56;22.90;99.90
26479;DHT22;14163;-26.142;27.992;2023-12-20T05:20:26;22.90;99.90
26479;DHT22;14163;-26.142;27.992;2023-12-20T05:22:55;22.80;99.90
26479;DHT22;14163;-26.142;27.992;2023-12-20T05:25:24;22.50;99.90
26479;DHT22;14163;-26.142;27.992;2023-12-20T05:27:53;22.30;99.90
26479;DHT22;14163;-26.142;27.992;2023-12-20T05:30:24;22.40;99.90
26479;DHT22;14163;-26.142;27.992;2023-12-20T05:32:53;22.40;99.90
26479;DHT22;14163;-26.142;27.992;2023-12-20T05:35:22;22.30;99.90
26479;DHT22;14163;-26.142;27.992;2023-12-20T05:37:51;22.20;99.90
26479;DHT22;14163;-26.142;27.992;2023-12-20T05:40:21;22.30;99.90
26479;DHT22;14163;-26.142;27.992;2023-12-20T05:42:50;22.20;99.90
26479;DHT22;14163;-26.142;27.992;2023-12-20T05:45:19;22.30;99.90
26479;DHT22;14163;-26.142;27.992;2023-12-20T05:47:50;22.30;99.90
26479;DHT22;14163;-26.142;27.992;2023-12-20T05:50:19;22.30;99.90
26479;DHT22;14163;-26.142;27.992;2023-12-20T05:52:48;22.50;99.90
26479;DHT22;14163;-26.142;27.992;2023-12-20T05:55:18;22.60;99.90
26479;DHT22;14163;-26.142;27.992;2023-12-20T05:57:47;22.70;99.90
26479;DHT22;14163;-26.142;27.992;2023-12-20T06:00:17;22.80;99.90
26479;DHT22;14163;-26.142;27.992;2023-12-20T06:02:46;22.90;99.90
26479;DHT22;14163;-26.142;27.992;2023-12-20T06:05:17;23.00;99.90
26479;DHT22;14163;-26.142;27.992;2023-12-20T06:07:46;23.20;99.90
26479;DHT22;14163;-26.142;27.992;2023-12-20T06:10:17;23.30;99.90
26479;DHT22;14163;-26.142;27.992;2023-12-20T06:12:46;23.50;99.90
26479;DHT22;14163;-26.142;27.992;2023-12-20T06:15:17;23.60;99.90
26479;DHT22;14163;-26.142;27.992;2023-12-20T06:17:46;23.60;99.90
26479;DHT22;14163;-26.142;27.992;2023-12-20T06:20:17;23.50;99.90
26479;DHT22;14163;-26.142;27.992;2023-12-20T06:22:46;23.30;99.90
26479;DHT22;14163;-26.142;27.992;2023-12-20T06:25:15;23.30;99.90
26479;DHT22;14163;-26.142;27.992;2023-12-20T06:27:44;23.60;99.90
26479;DHT22;14163;-26.142;27.992;2023-12-20T06:30:13;23.60;99.90
26479;DHT22;14163;-26.142;27.992;2023-12-20T06:32:42;23.70;99.90
26479;DHT22;14163;-26.142;27.992;2023-12-20T06:35:15;23.80;99.90
26479;DHT22;14163;-26.142;27.992;2023-12-20T06:37:44;23.80;99.90
26479;DHT22;14163;-26.142;27.992;2023-12-20T06:40:13;23.80;99.90
26479;DHT22;14163;-26.142;27.992;2023-12-20T06:42:44;23.90;99.90
26479;DHT22;14163;-26.142;27.992;2023-12-20T06:45:13;23.90;99.90
26479;DHT22;14163;-26.142;27.992;2023-12-20T06:47:42;23.90;99.90
26479;DHT22;14163;-26.142;27.992;2023-12-20T06:50:11;23.90;99.90
26479;DHT22;14163;-26.142;27.992;2023-12-20T06:52:42;24.10;99.90
26479;DHT22;14163;-26.142;27.992;2023-12-20T06:55:12;24.40;99.90
26479;DHT22;14163;-26.142;27.992;2023-12-20T06:57:41;24.40;99.90
26479;DHT22;14163;-26.142;27.992;2023-12-20T07:00:12;24.50;99.90
26479;DHT22;14163;-26.142;27.992;2023-12-20T07:02:41;24.30;99.90
26479;DHT22;14163;-26.142;27.992;2023-12-20T07:05:10;24.30;99.90
26479;DHT22;14163;-26.142;27.992;2023-12-20T07:07:41;24.60;99.90
26479;DHT22;14163;-26.142;27.992;2023-12-20T07:10:10;24.70;99.90
26479;DHT22;14163;-26.142;27.992;2023-12-20T07:12:39;24.80;99.90
26479;DHT22;14163;-26.142;27.992;2023-12-20T07:15:09;24.70;99.90
26479;DHT22;14163;-26.142;27.992;2023-12-20T07:17:38;24.50;99.90
26479;DHT22;14163;-26.142;27.992;2023-12-20T07:20:08;24.40;99.90
26479;DHT22;14163;-26.142;27.992;2023-12-20T07:22:37;24.40;99.90
26479;DHT22;14163;-26.142;27.992;2023-12-20T07:25:09;24.50;99.90
26479;DHT22;14163;-26.142;27.992;2023-12-20T07:27:38;24.60;99.90
26479;DHT22;14163;-26.142;27.992;2023-12-20T07:30:08;24.80;99.90
26479;DHT22;14163;-26.142;27.992;2023-12-20T07:32:38;25.00;99.90
26479;DHT22;14163;-26.142;27.992;2023-12-20T07:35:07;25.10;99.90
26479;DHT22;14163;-26.142;27.992;2023-12-20T07:37:36;25.20;99.90
26479;DHT22;14163;-26.142;27.992;2023-12-20T07:40:08;25.30;99.90
26479;DHT22;14163;-26.142;27.992;2023-12-20T07:42:37;25.10;99.90
26479;DHT22;14163;-26.142;27.992;2023-12-20T07:45:07;25.20;99.90
26479;DHT22;14163;-26.142;27.992;2023-12-20T07:47:37;25.20;99.90
26479;DHT22;14163;-26.142;27.992;2023-12-20T07:50:07;25.10;99.90
26479;DHT22;14163;-26.142;27.992;2023-12-20T07:52:37;25.00;99.90
26479;DHT22;14163;-26.142;27.992;2023-12-20T07:55:08;25.10;99.90
26479;DHT22;14163;-26.142;27.992;2023-12-20T07:57:37;25.10;99.90
26479;DHT22;14163;-26.142;27.992;2023-12-20T08:00:07;25.10;99.90
26479;DHT22;14163;-26.142;27.992;2023-12-20T08:02:36;25.00;99.90
26479;DHT22;14163;-26.142;27.992;2023-12-20T08:05:06;25.30;99.90
26479;DHT22;14163;-26.142;27.992;2023-12-20T08:07:35;25.40;99.90
26479;DHT22;14163;-26.142;27.992;2023-12-20T08:10:05;25.40;99.90
26479;DHT22;14163;-26.142;27.992;2023-12-20T08:12:37;25.30;99.90
26479;DHT22;14163;-26.142;27.992;2023-12-20T08:15:08;25.20;99.90
26479;DHT22;14163;-26.142;27.992;2023-12-20T08:17:37;25.30;99.90
26479;DHT22;14163;-26.142;27.992;2023-12-20T08:20:07;25.70;99.90
26479;DHT22;14163;-26.142;27.992;2023-12-20T08:22:36;25.70;99.90
26479;DHT22;14163;-26.142;27.992;2023-12-20T08:25:06;25.40;99.90
26479;DHT22;14163;-26.142;27.992;2023-12-20T08:27:39;25.50;99.90
26479;DHT22;14163;-26.142;27.992;2023-12-20T08:30:10;25.60;99.90
26479;DHT22;14163;-26.142;27.992;2023-12-20T08:32:39;25.80;99.90
26479;DHT22;14163;-26.142;27.992;2023-12-20T08:35:08;26.20;99.90
26479;DHT22;14163;-26.142;27.992;2023-12-20T08:37:38;26.10;99.90
26479;DHT22;14163;-26.142;27.992;2023-12-20T08:40:07;26.00;99.90
26479;DHT22;14163;-26.142;27.992;2023-12-20T08:42:38;26.00;99.90
26479;DHT22;14163;-26.142;27.992;2023-12-20T08:45:08;26.10;99.90
26479;DHT22;14163;-26.142;27.992;2023-12-20T08:47:37;26.10;99.90
26479;DHT22;14163;-26.142;27.992;2023-12-20T08:50:08;26.20;99.90
26479;DHT22;14163;-26.142;27.992;2023-12-20T08:52:37;25.90;99.90
26479;DHT22;14163;-26.142;27.992;2023-12-20T08:55:07;25.90;99.90
26479;DHT22;14163;-26.142;27.992;2023-12-20T08:57:38;25.90;99.90
26479;DHT22;14163;-26.142;27.992;2023-12-20T09:00:08;25.60;99.90
26479;DHT22;14163;-26.142;27.992;2023-12-20T09:02:37;25.60;99.90
26479;DHT22;14163;-26.142;27.992;2023-12-20T09:05:07;25.90;99.90
26479;DHT22;14163;-26.142;27.992;2023-12-20T09:07:36;26.20;99.90
26479;DHT22;14163;-26.142;27.992;2023-12-20T09:10:06;26.40;99.90
26479;DHT22;14163;-26.142;27.992;2023-12-20T09:12:35;26.60;99.90
26479;DHT22;14163;-26.142;27.992;2023-12-20T09:15:08;26.50;99.90
26479;DHT22;14163;-26.142;27.992;2023-12-20T09:17:38;26.60;99.90
26479;DHT22;14163;-26.142;27.992;2023-12-20T09:20:09;26.80;99.90
26479;DHT22;14163;-26.142;27.992;2023-12-20T09:22:39;26.70;99.90
26479;DHT22;14163;-26.142;27.992;2023-12-20T09:25:09;26.80;99.90
26479;DHT22;14163;-26.142;27.992;2023-12-20T09:27:39;26.80;99.90
26479;DHT22;14163;-26.142;27.992;2023-12-20T09:30:10;26.90;99.90
26479;DHT22;14163;-26.142;27.992;2023-12-20T09:32:39;27.10;99.90
26479;DHT22;14163;-26.142;27.992;2023-12-20T09:35:09;27.20;99.90
26479;DHT22;14163;-26.142;27.992;2023-12-20T09:37:38;27.20;99.90
26479;DHT22;14163;-26.142;27.992;2023-12-20T09:40:11;27.30;99.90
26479;DHT22;14163;-26.142;27.992;2023-12-20T09:42:48;27.40;99.90
26479;DHT22;14163;-26.142;27.992;2023-12-20T09:45:20;27.50;99.90
26479;DHT22;14163;-26.142;27.992;2023-12-20T09:47:50;27.70;99.90
26479;DHT22;14163;-26.142;27.992;2023-12-20T09:50:21;27.90;99.90
26479;DHT22;14163;-26.142;27.992;2023-12-20T09:52:51;27.90;99.90
26479;DHT22;14163;-26.142;27.992;2023-12-20T09:55:21;27.90;99.90
26479;DHT22;14163;-26.142;27.992;2023-12-20T09:57:50;27.90;99.90
26479;DHT22;14163;-26.142;27.992;2023-12-20T10:00:21;27.80;99.90
26479;DHT22;14163;-26.142;27.992;2023-12-20T10:02:57;27.70;99.90
26479;DHT22;14163;-26.142;27.992;2023-12-20T10:05:27;27.90;99.90
26479;DHT22;14163;-26.142;27.992;2023-12-20T10:07:57;27.90;99.90
26479;DHT22;14163;-26.142;27.992;2023-12-20T10:10:27;27.90;99.90
26479;DHT22;14163;-26.142;27.992;2023-12-20T10:13:03;27.90;99.90
26479;DHT22;14163;-26.142;27.992;2023-12-20T10:15:36;27.80;99.90
26479;DHT22;14163;-26.142;27.992;2023-12-20T10:18:05;27.60;99.90
26479;DHT22;14163;-26.142;27.992;2023-12-20T10:20:35;27.70;99.90
26479;DHT22;14163;-26.142;27.992;2023-12-20T10:23:04;27.80;99.90
26479;DHT22;14163;-26.142;27.992;2023-12-20T10:25:33;27.80;99.90
26479;DHT22;14163;-26.142;27.992;2023-12-20T10:28:12;27.90;99.90
26479;DHT22;14163;-26.142;27.992;2023-12-20T10:30:43;28.00;99.90
26479;DHT22;14163;-26.142;27.992;2023-12-20T10:33:12;28.10;99.90
26479;DHT22;14163;-26.142;27.992;2023-12-20T10:35:42;28.20;99.90
26479;DHT22;14163;-26.142;27.992;2023-12-20T10:38:12;28.50;99.90
26479;DHT22;14163;-26.142;27.992;2023-12-20T10:40:41;28.30;99.90
26479;DHT22;14163;-26.142;27.992;2023-12-20T10:43:11;28.10;99.90
26479;DHT22;14163;-26.142;27.992;2023-12-20T10:45:44;28.00;99.90
26479;DHT22;14163;-26.142;27.992;2023-12-20T10:48:13;28.00;99.90
26479;DHT22;14163;-26.142;27.992;2023-12-20T10:50:42;28.10;99.90
26479;DHT22;14163;-26.142;27.992;2023-12-20T10:53:13;28.20;99.90
26479;DHT22;14163;-26.142;27.992;2023-12-20T10:55:43;28.40;99.90
26479;DHT22;14163;-26.142;27.992;2023-12-20T10:58:14;28.50;99.90
26479;DHT22;14163;-26.142;27.992;2023-12-20T11:00:46;28.80;99.90
26479;DHT22;14163;-26.142;27.992;2023-12-20T11:03:18;28.90;99.90
26479;DHT22;14163;-26.142;27.992;2023-12-20T11:05:55;29.00;99.90
26479;DHT22;14163;-26.142;27.992;2023-12-20T11:08:31;29.00;99.90
26479;DHT22;14163;-26.142;27.992;2023-12-20T11:11:13;28.90;99.90
26479;DHT22;14163;-26.142;27.992;2023-12-20T11:13:53;29.10;99.90
26479;DHT22;14163;-26.142;27.992;2023-12-20T11:16:25;29.10;99.90
26479;DHT22;14163;-26.142;27.992;2023-12-20T11:18:54;29.00;99.90
26479;DHT22;14163;-26.142;27.992;2023-12-20T11:21:23;28.90;99.90
26479;DHT22;14163;-26.142;27.992;2023-12-20T11:23:52;29.20;99.90
26479;DHT22;14163;-26.142;27.992;2023-12-20T11:26:27;29.10;99.90
26479;DHT22;14163;-26.142;27.992;2023-12-20T11:29:30;29.30;99.90
26479;DHT22;14163;-26.142;27.992;2023-12-20T11:32:02;29.40;99.90
26479;DHT22;14163;-26.142;27.992;2023-12-20T11:34:36;29.50;99.90
26479;DHT22;14163;-26.142;27.992;2023-12-20T11:37:05;29.60;99.90
26479;DHT22;14163;-26.142;27.992;2023-12-20T11:39:37;29.60;99.90
26479;DHT22;14163;-26.142;27.992;2023-12-20T11:42:06;29.60;99.90
26479;DHT22;14163;-26.142;27.992;2023-12-20T11:44:37;29.70;99.90
26479;DHT22;14163;-26.142;27.992;2023-12-20T11:47:08;29.90;99.90
26479;DHT22;14163;-26.142;27.992;2023-12-20T11:49:38;30.20;99.90
26479;DHT22;14163;-26.142;27.992;2023-12-20T11:52:08;30.20;99.90
26479;DHT22;14163;-26.142;27.992;2023-12-20T11:54:37;30.20;99.90
26479;DHT22;14163;-26.142;27.992;2023-12-20T11:57:06;30.30;99.90
26479;DHT22;14163;-26.142;27.992;2023-12-20T11:59:36;30.30;99.90
26479;DHT22;14163;-26.142;27.992;2023-12-20T12:02:07;30.10;99.90
26479;DHT22;14163;-26.142;27.992;2023-12-20T12:04:36;30.20;99.90
26479;DHT22;14163;-26.142;27.992;2023-12-20T12:07:05;30.40;99.90
26479;DHT22;14163;-26.142;27.992;2023-12-20T12:09:35;30.50;99.90
26479;DHT22;14163;-26.142;27.992;2023-12-20T12:12:05;30.60;99.90
26479;DHT22;14163;-26.142;27.992;2023-12-20T12:14:34;30.50;99.90
26479;DHT22;14163;-26.142;27.992;2023-12-20T12:17:04;30.50;99.90
26479;DHT22;14163;-26.142;27.992;2023-12-20T12:19:35;30.50;99.90
26479;DHT22;14163;-26.142;27.992;2023-12-20T12:22:07;30.50;99.90
26479;DHT22;14163;-26.142;27.992;2023-12-20T12:24:39;30.50;99.90
26479;DHT22;14163;-26.142;27.992;2023-12-20T12:27:08;30.60;99.90
26479;DHT22;14163;-26.142;27.992;2023-12-20T12:29:38;30.60;99.90
26479;DHT22;14163;-26.142;27.992;2023-12-20T12:32:08;30.60;99.90
26479;DHT22;14163;-26.142;27.992;2023-12-20T12:34:40;30.90;99.90
26479;DHT22;14163;-26.142;27.992;2023-12-20T12:37:09;31.00;99.90
26479;DHT22;14163;-26.142;27.992;2023-12-20T12:39:39;31.00;99.90
26479;DHT22;14163;-26.142;27.992;2023-12-20T12:42:09;31.00;99.90
26479;DHT22;14163;-26.142;27.992;2023-12-20T12:44:38;30.90;99.90
26479;DHT22;14163;-26.142;27.992;2023-12-20T12:47:07;30.80;99.90
26479;DHT22;14163;-26.142;27.992;2023-12-20T12:49:41;30.80;99.90
26479;DHT22;14163;-26.142;27.992;2023-12-20T12:52:10;31.00;99.90
26479;DHT22;14163;-26.142;27.992;2023-12-20T12:54:39;31.00;99.90
26479;DHT22;14163;-26.142;27.992;2023-12-20T12:57:09;30.90;99.90
26479;DHT22;14163;-26.142;27.992;2023-12-20T12:59:38;31.00;99.90
26479;DHT22;14163;-26.142;27.992;2023-12-20T13:02:08;30.90;99.90
26479;DHT22;14163;-26.142;27.992;2023-12-20T13:04:38;31.10;99.90
26479;DHT22;14163;-26.142;27.992;2023-12-20T13:07:08;31.20;99.90
26479;DHT22;14163;-26.142;27.992;2023-12-20T13:09:38;31.20;99.90
26479;DHT22;14163;-26.142;27.992;2023-12-20T13:12:08;31.00;99.90
26479;DHT22;14163;-26.142;27.992;2023-12-20T13:14:37;31.00;99.90
26479;DHT22;14163;-26.142;27.992;2023-12-20T13:17:07;31.30;99.90
26479;DHT22;14163;-26.142;27.992;2023-12-20T13:19:38;31.30;99.90
26479;DHT22;14163;-26.142;27.992;2023-12-20T13:22:07;31.30;99.90
26479;DHT22;14163;-26.142;27.992;2023-12-20T13:24:36;31.10;99.90
26479;DHT22;14163;-26.142;27.992;2023-12-20T13:27:05;30.90;99.90
26479;DHT22;14163;-26.142;27.992;2023-12-20T13:29:34;31.10;99.90
26479;DHT22;14163;-26.142;27.992;2023-12-20T13:32:04;31.10;99.90
26479;DHT22;14163;-26.142;27.992;2023-12-20T13:34:33;31.10;99.90
26479;DHT22;14163;-26.142;27.992;2023-12-20T13:37:04;31.10;99.90
26479;DHT22;14163;-26.142;27.992;2023-12-20T13:39:33;30.90;99.90
26479;DHT22;14163;-26.142;27.992;2023-12-20T13:42:03;30.70;99.90
26479;DHT22;14163;-26.142;27.992;2023-12-20T13:44:32;30.70;99.90
26479;DHT22;14163;-26.142;27.992;2023-12-20T13:47:01;30.80;99.90
26479;DHT22;14163;-26.142;27.992;2023-12-20T13:49:30;30.80;99.90
26479;DHT22;14163;-26.142;27.992;2023-12-20T13:51:59;31.00;99.90
26479;DHT22;14163;-26.142;27.992;2023-12-20T13:54:32;31.10;99.90
26479;DHT22;14163;-26.142;27.992;2023-12-20T13:57:01;31.20;99.90
26479;DHT22;14163;-26.142;27.992;2023-12-20T13:59:31;31.20;99.90
26479;DHT22;14163;-26.142;27.992;2023-12-20T14:02:02;31.20;99.90
26479;DHT22;14163;-26.142;27.992;2023-12-20T14:04:31;31.20;99.90
26479;DHT22;14163;-26.142;27.992;2023-12-20T14:07:00;31.30;99.90
26479;DHT22;14163;-26.142;27.992;2023-12-20T14:09:31;31.30;99.90
26479;DHT22;14163;-26.142;27.992;2023-12-20T14:12:00;31.30;99.90
26479;DHT22;14163;-26.142;27.992;2023-12-20T14:14:29;31.30;99.90
26479;DHT22;14163;-26.142;27.992;2023-12-20T14:16:58;31.30;99.90
26479;DHT22;14163;-26.142;27.992;2023-12-20T14:19:27;31.40;99.90
26479;DHT22;14163;-26.142;27.992;2023-12-20T14:21:56;31.40;99.90
26479;DHT22;14163;-26.142;27.992;2023-12-20T14:24:28;31.40;99.90
26479;DHT22;14163;-26.142;27.992;2023-12-20T14:26:59;31.40;99.90
26479;DHT22;14163;-26.142;27.992;2023-12-20T14:29:28;31.40;99.90
26479;DHT22;14163;-26.142;27.992;2023-12-20T14:31:57;31.50;99.90
26479;DHT22;14163;-26.142;27.992;2023-12-20T14:34:28;31.60;99.90
26479;DHT22;14163;-26.142;27.992;2023-12-20T14:36:57;31.70;99.90
26479;DHT22;14163;-26.142;27.992;2023-12-20T14:39:26;31.70;99.90
26479;DHT22;14163;-26.142;27.992;2023-12-20T14:41:55;31.60;99.90
26479;DHT22;14163;-26.142;27.992;2023-12-20T14:44:26;31.70;99.90
26479;DHT22;14163;-26.142;27.992;2023-12-20T14:46:55;31.60;99.90
26479;DHT22;14163;-26.142;27.992;2023-12-20T14:49:24;31.50;99.90
26479;DHT22;14163;-26.142;27.992;2023-12-20T14:51:53;31.40;99.90
26479;DHT22;14163;-26.142;27.992;2023-12-20T14:54:22;31.20;99.90
26479;DHT22;14163;-26.142;27.992;2023-12-20T14:56:51;31.40;99.90
26479;DHT22;14163;-26.142;27.992;2023-12-20T14:59:21;31.40;99.90
26479;DHT22;14163;-26.142;27.992;2023-12-20T15:01:52;31.20;99.90
26479;DHT22;14163;-26.142;27.992;2023-12-20T15:04:21;31.30;99.90
26479;DHT22;14163;-26.142;27.992;2023-12-20T15:06:55;31.40;99.90
26479;DHT22;14163;-26.142;27.992;2023-12-20T15:09:24;31.40;99.90
26479;DHT22;14163;-26.142;27.992;2023-12-20T15:11:53;31.30;99.90
26479;DHT22;14163;-26.142;27.992;2023-12-20T15:14:22;31.10;99.90
26479;DHT22;14163;-26.142;27.992;2023-12-20T15:16:53;31.00;99.90
26479;DHT22;14163;-26.142;27.992;2023-12-20T15:19:23;30.80;99.90